KAUG/AUG METAR and TAF weather

Enter ICAO airport designator
Station Type Date Time Source
KAUG METAR 2019/02/20 22:53 UTC NOAA

KAUG 202253Z AUTO 00000KT 10SM CLR M05/M16 A3039 RMK AO2 SLP298 T10501161


Station Type Date Time Source
KAUG Decoded METAR 2019/02/20 22:53 UTC NOAA

AUGUSTA STATE AIRPORT, ME, United States (KAUG) 44-19N 069-48W 109M
Feb 20, 2019 - 05:53 PM EST / 2019.02.20 2253 UTC
Wind: Calm:0
Visibility: 10 mile(s):0
Sky conditions: clear
Temperature: 23.0 F (-5.0 C)
Dew Point: 3.0 F (-16.1 C)
Relative Humidity: 41%
Pressure (altimeter): 30.39 in. Hg (1029 hPa)
ob: KAUG 202253Z AUTO 00000KT 10SM CLR M05/M16 A3039 RMK AO2 SLP298 T10501161
cycle: 23

Station Type Date Time Source
KAUG TAF 2019/02/20 18:30 UTC NOAA

TAF KAUG 201726Z 2018/2118 VRB04KT P6SM BKN250
FM210200 28003KT P6SM BKN080 OVC120
FM210600 VRB03KT 2SM -SN BR OVC012
FM210800 15004KT 1SM -SN BR OVC007
FM211700 26005KT P6SM BKN025 OVC040


Example: see airport list